Main page
METAR-TAF:

METAR-TAF

Airports :

Colmenar Viejo, Spain

latitude: 40-39N, longitude: 003-44W, elevation: -999 m

Current weather observation

The report was made 10 hours and 33 minutes ago, at 18:00 UTC
Wind 7 kt from the West/Northwest
Temperature 27°C
Humidity 17%
Pressure 1012 hPa
Visibility 10 km or more
no clouds below 1500 m and no cumulonimbus

METAR: LECV 141800Z 30007KT CAVOK 27/M00 Q1012

Time: 06:33 (04:33 UTC)

Forecast

The report was made 5 hours and 33 minutes ago, at 23:00 UTC
Forecast valid from 15 at 00 UTC to 15 at 24 UTC
Wind 5 kt from variable directions
Visibility 10 km or more
no clouds below 1500 m and no cumulonimbus
Becoming
from 15 at 08 UTC to 15 at 11 UTC
Wind 10 kt from the West/Southwest
Probability 30% :
Temporary
from 15 at 13 UTC to 15 at 17 UTC
Wind 12 kt from the Southwest with gusts up to 25 kt

TAF: LECV 142300Z 1500/1524 VRB05KT CAVOK TX29/1515Z TN15/1506Z BECMG 1508/1511 24010KT PROB30 TEMPO 1513/1517 23012G25KT

Weather observations and forecasts of more than 4000 airports (METAR and TAF reports).

The available stations are represented by yellow and red dots on the map.

Hover mouse over dot to see the name of the station.

Then click to see weather observations and forecasts.

To change the map : click on the green buttons with a black cross to zoom in, on the green button with a dash to zoom out, or on the green arrows for adjacent maps.


METAR-TAF: